createdAt,value
2023-11-14T00:01:15.381Z,11.80
2023-11-14T00:03:42.213Z,11.80
2023-11-14T00:06:09.309Z,11.80
2023-11-14T00:08:36.094Z,11.80
2023-11-14T00:11:06.686Z,11.80
2023-11-14T00:13:37.299Z,11.90
2023-11-14T00:16:04.638Z,11.90
2023-11-14T00:18:31.625Z,12.00
2023-11-14T00:20:59.121Z,11.90
2023-11-14T00:23:26.162Z,12.00
2023-11-14T00:25:53.103Z,12.00
2023-11-14T00:28:19.884Z,12.00
2023-11-14T00:30:46.741Z,12.00
2023-11-14T00:33:14.826Z,12.00
2023-11-14T00:35:43.116Z,12.00
2023-11-14T00:38:10.145Z,12.00
2023-11-14T00:40:37.573Z,12.00
2023-11-14T00:43:04.407Z,12.00
2023-11-14T00:45:33.596Z,11.90
2023-11-14T00:48:01.360Z,11.90
2023-11-14T00:50:28.389Z,12.00
2023-11-14T00:52:55.280Z,12.10
2023-11-14T00:55:22.048Z,12.00
2023-11-14T00:57:48.845Z,12.00
2023-11-14T01:00:16.468Z,12.00
2023-11-14T01:02:43.536Z,12.10
2023-11-14T01:05:10.874Z,12.10
2023-11-14T01:07:37.753Z,12.10
2023-11-14T01:10:05.976Z,12.10
2023-11-14T01:12:33.706Z,12.10
2023-11-14T01:15:01.508Z,12.20
2023-11-14T01:17:28.631Z,12.20
2023-11-14T01:19:55.531Z,12.10
2023-11-14T01:22:22.392Z,12.20
2023-11-14T01:24:49.245Z,12.10
2023-11-14T01:27:17.044Z,12.10
2023-11-14T01:29:47.775Z,12.10
2023-11-14T01:32:14.646Z,12.10
2023-11-14T01:34:42.194Z,12.10
2023-11-14T01:37:10.305Z,12.00
2023-11-14T01:39:37.157Z,12.00
2023-11-14T01:42:04.027Z,11.90
2023-11-14T01:44:31.366Z,11.90
2023-11-14T01:46:58.764Z,11.90
2023-11-14T01:49:25.860Z,11.90
2023-11-14T01:51:52.973Z,11.90
2023-11-14T01:54:19.779Z,11.90
2023-11-14T01:56:46.666Z,11.90
2023-11-14T01:59:14.584Z,11.90
2023-11-14T02:01:41.395Z,11.90
2023-11-14T02:04:17.137Z,11.70
2023-11-14T02:06:44.580Z,11.60
2023-11-14T02:09:12.168Z,11.40
2023-11-14T02:12:28.447Z,11.40
2023-11-14T02:14:55.324Z,11.30
2023-11-14T02:17:22.263Z,11.30
2023-11-14T02:19:49.152Z,11.30
2023-11-14T02:22:16.365Z,11.30
2023-11-14T02:24:52.786Z,11.40
2023-11-14T02:27:20.812Z,11.40
2023-11-14T02:29:48.709Z,11.50
2023-11-14T02:32:15.550Z,11.60
2023-11-14T02:34:43.776Z,11.60
2023-11-14T02:37:12.080Z,11.60
2023-11-14T02:39:40.017Z,11.60
2023-11-14T02:42:06.937Z,11.50
2023-11-14T02:44:33.680Z,11.30
2023-11-14T02:47:00.584Z,11.30
2023-11-14T02:49:58.721Z,11.20
2023-11-14T02:52:26.821Z,11.20
2023-11-14T02:54:54.025Z,11.20
2023-11-14T02:57:20.871Z,11.10
2023-11-14T02:59:51.592Z,11.10
2023-11-14T03:02:19.146Z,11.10
2023-11-14T03:04:46.287Z,11.00
2023-11-14T03:07:13.428Z,11.00
2023-11-14T03:09:40.276Z,11.00
2023-11-14T03:12:07.589Z,10.90
2023-11-14T03:14:34.424Z,11.00
2023-11-14T03:17:01.316Z,11.20
2023-11-14T03:19:30.367Z,11.20
2023-11-14T03:21:57.238Z,11.30
2023-11-14T03:24:23.993Z,11.30
2023-11-14T03:26:50.735Z,11.30
2023-11-14T03:29:17.584Z,11.40
2023-11-14T03:31:45.603Z,11.30
2023-11-14T03:34:13.014Z,11.20
2023-11-14T03:36:40.912Z,11.10
2023-11-14T03:39:08.837Z,11.10
2023-11-14T03:41:35.839Z,11.00
2023-11-14T03:44:02.740Z,11.00
2023-11-14T03:46:29.601Z,11.10
2023-11-14T03:48:56.391Z,11.10
2023-11-14T03:51:23.181Z,11.20
2023-11-14T03:53:50.828Z,11.20
2023-11-14T03:56:17.697Z,11.30
2023-11-14T03:58:44.578Z,11.30
2023-11-14T04:01:11.504Z,11.30
2023-11-14T04:03:38.895Z,11.40
2023-11-14T04:06:05.761Z,11.40
2023-11-14T04:08:33.355Z,11.40
2023-11-14T04:11:00.238Z,11.40
2023-11-14T04:13:27.067Z,11.30
2023-11-14T04:15:53.979Z,11.30
2023-11-14T04:18:20.900Z,11.30
2023-11-14T04:20:47.819Z,11.30
2023-11-14T04:23:15.022Z,11.20
2023-11-14T04:25:42.098Z,11.20
2023-11-14T04:28:09.643Z,11.20
2023-11-14T04:30:36.432Z,11.30
2023-11-14T04:33:05.706Z,11.20
2023-11-14T04:35:32.664Z,11.00
2023-11-14T04:37:59.456Z,11.00
2023-11-14T04:40:29.313Z,10.90
2023-11-14T04:42:56.555Z,10.80
2023-11-14T04:45:23.322Z,10.70
2023-11-14T04:47:50.145Z,10.60
2023-11-14T04:50:21.217Z,10.60
2023-11-14T04:52:48.169Z,10.50
2023-11-14T04:55:15.147Z,10.50
2023-11-14T04:57:41.966Z,10.50
2023-11-14T05:00:12.586Z,10.50
2023-11-14T05:02:39.767Z,10.50
2023-11-14T05:05:07.030Z,10.60
2023-11-14T05:07:34.023Z,10.60
2023-11-14T05:10:00.856Z,10.70
2023-11-14T05:12:27.610Z,10.80
2023-11-14T05:14:54.413Z,10.80
2023-11-14T05:17:21.267Z,10.80
2023-11-14T05:19:48.951Z,10.80
2023-11-14T05:22:15.846Z,10.90
2023-11-14T05:24:42.817Z,11.00
2023-11-14T05:27:10.321Z,11.10
2023-11-14T05:29:37.910Z,11.00
2023-11-14T05:32:05.577Z,11.10
2023-11-14T05:34:32.390Z,11.10
2023-11-14T05:36:59.202Z,11.20
2023-11-14T05:39:25.909Z,11.30
2023-11-14T05:41:52.728Z,11.30
2023-11-14T05:44:19.670Z,11.30
2023-11-14T05:46:46.598Z,11.40
2023-11-14T05:49:13.491Z,11.30
2023-11-14T05:51:40.986Z,11.40
2023-11-14T05:54:07.799Z,11.30
2023-11-14T05:56:34.567Z,11.30
2023-11-14T05:59:01.370Z,11.40
2023-11-14T06:01:28.297Z,11.40
2023-11-14T06:03:55.220Z,11.30
2023-11-14T06:06:22.120Z,11.30
2023-11-14T06:08:48.864Z,11.30
2023-11-14T06:11:17.026Z,11.30
2023-11-14T06:13:45.656Z,11.40
2023-11-14T06:16:13.255Z,11.30
2023-11-14T06:18:40.105Z,11.20
2023-11-14T06:21:07.164Z,11.10
2023-11-14T06:23:33.983Z,11.10
2023-11-14T06:26:01.019Z,11.00
2023-11-14T06:28:28.666Z,11.00
2023-11-14T06:30:55.612Z,11.00
2023-11-14T06:33:22.533Z,11.10
2023-11-14T06:35:49.499Z,11.10
2023-11-14T06:38:16.466Z,11.10
2023-11-14T06:40:45.668Z,11.10
2023-11-14T06:43:12.817Z,11.10
2023-11-14T06:45:39.692Z,11.20
2023-11-14T06:48:06.818Z,11.20
2023-11-14T06:50:41.435Z,11.20
2023-11-14T06:53:11.955Z,11.30
2023-11-14T06:55:39.551Z,11.30
2023-11-14T06:58:06.594Z,11.30
2023-11-14T07:00:33.375Z,11.40
2023-11-14T07:03:00.469Z,11.40
2023-11-14T07:05:27.375Z,11.40
2023-11-14T07:07:56.177Z,11.40
2023-11-14T07:10:24.914Z,11.40
2023-11-14T07:12:52.515Z,11.50
2023-11-14T07:15:22.009Z,11.60
2023-11-14T07:17:50.882Z,11.60
2023-11-14T07:20:22.098Z,11.60
2023-11-14T07:22:49.771Z,11.60
2023-11-14T07:25:17.448Z,11.60
2023-11-14T07:27:47.252Z,11.60
2023-11-14T07:30:14.292Z,11.60
2023-11-14T07:32:42.181Z,11.60
2023-11-14T07:35:11.659Z,11.60
2023-11-14T07:37:39.212Z,11.70
2023-11-14T07:40:07.543Z,11.80
2023-11-14T07:42:34.685Z,11.80
2023-11-14T07:45:01.506Z,11.80
2023-11-14T07:47:28.469Z,11.80
2023-11-14T07:49:56.035Z,11.80
2023-11-14T07:52:22.927Z,11.90
2023-11-14T07:54:50.816Z,11.90
2023-11-14T07:57:17.576Z,11.90
2023-11-14T07:59:44.459Z,11.90
2023-11-14T08:02:11.458Z,11.90
2023-11-14T08:04:38.937Z,12.00
2023-11-14T08:07:08.361Z,12.00
2023-11-14T08:09:35.544Z,12.00
2023-11-14T08:12:02.469Z,12.10
2023-11-14T08:14:29.340Z,12.00
2023-11-14T08:16:56.207Z,12.00
2023-11-14T08:19:24.456Z,12.00
2023-11-14T08:21:51.221Z,12.00
2023-11-14T08:24:20.169Z,12.00
2023-11-14T08:26:46.933Z,12.00
2023-11-14T08:29:13.788Z,11.90
2023-11-14T08:31:41.064Z,11.90
2023-11-14T08:34:09.314Z,11.90
2023-11-14T08:36:36.217Z,11.90
2023-11-14T08:39:03.300Z,11.90
2023-11-14T08:41:30.289Z,11.90
2023-11-14T08:43:58.287Z,11.90
2023-11-14T08:46:26.142Z,11.90
2023-11-14T08:48:53.058Z,11.80
2023-11-14T08:51:21.409Z,11.80
2023-11-14T08:53:48.858Z,11.90
2023-11-14T08:56:15.622Z,11.90
2023-11-14T08:58:42.650Z,12.00
2023-11-14T09:01:12.468Z,12.00
2023-11-14T09:03:39.481Z,12.00
2023-11-14T09:06:06.652Z,11.90
2023-11-14T09:08:34.491Z,11.80
2023-11-14T09:11:01.789Z,12.00
2023-11-14T09:13:28.668Z,11.80
2023-11-14T09:15:59.487Z,11.70
2023-11-14T09:18:26.460Z,11.70
2023-11-14T09:20:54.337Z,11.80
2023-11-14T09:23:21.104Z,11.80
2023-11-14T09:25:48.813Z,11.90
2023-11-14T09:28:16.203Z,11.90
2023-11-14T09:30:43.632Z,12.10
2023-11-14T09:33:11.173Z,12.20
2023-11-14T09:35:38.078Z,12.20
2023-11-14T09:38:06.482Z,12.40
2023-11-14T09:40:33.405Z,12.60
2023-11-14T09:43:00.251Z,12.70
2023-11-14T09:45:27.326Z,13.10
2023-11-14T09:47:55.839Z,13.00
2023-11-14T09:50:22.876Z,12.90
2023-11-14T09:52:51.301Z,12.70
2023-11-14T09:55:18.649Z,12.60
2023-11-14T09:57:49.981Z,12.60
2023-11-14T10:00:19.268Z,12.50
2023-11-14T10:02:46.940Z,12.50
2023-11-14T10:05:16.792Z,12.50
2023-11-14T10:07:44.620Z,12.50
2023-11-14T10:10:12.883Z,12.50
2023-11-14T10:12:40.870Z,12.50
2023-11-14T10:15:11.352Z,12.50
2023-11-14T10:17:47.290Z,12.50
2023-11-14T10:20:15.600Z,12.60
2023-11-14T10:22:50.864Z,12.60
2023-11-14T10:25:28.789Z,12.60
2023-11-14T10:28:06.150Z,12.60
2023-11-14T10:30:47.293Z,12.50
2023-11-14T10:33:15.164Z,12.50
2023-11-14T10:35:42.608Z,12.60
2023-11-14T10:38:26.151Z,12.70
2023-11-14T10:40:54.932Z,12.80
2023-11-14T10:43:32.537Z,12.80
2023-11-14T10:46:08.760Z,12.80
2023-11-14T10:48:36.650Z,12.70
2023-11-14T10:51:05.099Z,12.70
2023-11-14T10:53:32.049Z,12.60
2023-11-14T10:55:59.428Z,12.60
2023-11-14T10:58:26.214Z,12.60
2023-11-14T11:00:53.229Z,12.50
2023-11-14T11:03:21.289Z,12.50
2023-11-14T11:05:48.833Z,12.30
2023-11-14T11:08:16.369Z,12.10
2023-11-14T11:10:44.308Z,12.00
2023-11-14T11:13:22.091Z,12.00
2023-11-14T11:15:51.275Z,12.20
2023-11-14T11:18:35.661Z,12.20
2023-11-14T11:21:14.242Z,12.20
2023-11-14T11:24:26.904Z,12.20
2023-11-14T11:27:12.849Z,12.10
2023-11-14T11:30:09.341Z,12.10
2023-11-14T11:32:41.610Z,12.00
2023-11-14T11:35:19.255Z,12.00
2023-11-14T11:38:06.264Z,12.00
2023-11-14T11:40:33.406Z,12.00
2023-11-14T11:43:17.932Z,12.00
2023-11-14T11:45:50.754Z,11.90
2023-11-14T11:48:37.204Z,11.70
2023-11-14T11:51:33.621Z,11.50
2023-11-14T11:54:00.506Z,11.40
2023-11-14T11:56:36.447Z,11.20
2023-11-14T11:59:04.550Z,11.20
2023-11-14T12:01:32.662Z,11.20
2023-11-14T12:04:03.951Z,11.10
2023-11-14T12:06:31.171Z,11.20
2023-11-14T12:08:58.042Z,11.40
2023-11-14T12:11:26.003Z,11.50
2023-11-14T12:13:54.838Z,11.80
2023-11-14T12:16:23.108Z,12.00
2023-11-14T12:18:50.423Z,12.10
2023-11-14T12:21:19.026Z,12.20
2023-11-14T12:23:47.786Z,12.30
2023-11-14T12:26:15.670Z,12.20
2023-11-14T12:28:44.706Z,12.10
2023-11-14T12:31:13.936Z,12.10
2023-11-14T12:33:49.277Z,12.10
2023-11-14T12:36:26.064Z,12.30
2023-11-14T12:38:54.659Z,12.30
2023-11-14T12:41:27.685Z,12.30
2023-11-14T12:44:06.029Z,12.30
2023-11-14T12:46:37.645Z,12.40
2023-11-14T12:49:11.633Z,12.40
2023-11-14T12:51:44.855Z,12.50
2023-11-14T12:54:13.665Z,12.60
2023-11-14T12:56:41.023Z,12.70
2023-11-14T12:59:11.086Z,12.60
2023-11-14T13:01:39.496Z,12.60
2023-11-14T13:04:11.022Z,12.70
2023-11-14T13:06:47.952Z,12.70
2023-11-14T13:09:18.472Z,12.70
2023-11-14T13:11:45.917Z,12.80
2023-11-14T13:14:14.488Z,12.80
2023-11-14T13:16:42.478Z,12.80
2023-11-14T13:19:11.566Z,12.80
2023-11-14T13:21:38.435Z,12.80
2023-11-14T13:24:09.892Z,12.90
2023-11-14T13:26:42.672Z,12.80
2023-11-14T13:29:09.496Z,12.90
2023-11-14T13:31:37.178Z,12.90
2023-11-14T13:34:04.637Z,12.90
2023-11-14T13:36:31.565Z,13.00
2023-11-14T13:38:59.471Z,12.90
2023-11-14T13:41:27.188Z,13.00
2023-11-14T13:43:54.123Z,13.00
2023-11-14T13:46:27.349Z,12.90
2023-11-14T13:48:56.409Z,13.00
2023-11-14T13:51:23.701Z,13.00
2023-11-14T13:53:51.597Z,13.00
2023-11-14T13:56:18.711Z,13.00
2023-11-14T13:58:46.434Z,13.00
2023-11-14T14:01:13.878Z,12.90
2023-11-14T14:03:41.050Z,12.80
2023-11-14T14:06:09.241Z,12.80
2023-11-14T14:08:36.628Z,12.80
2023-11-14T14:11:07.723Z,12.70
2023-11-14T14:13:35.712Z,12.70
2023-11-14T14:16:04.176Z,12.70
2023-11-14T14:18:32.803Z,12.70
2023-11-14T14:21:05.079Z,12.70
2023-11-14T14:23:36.196Z,12.70
2023-11-14T14:26:06.180Z,12.60
2023-11-14T14:28:38.763Z,12.60
2023-11-14T14:31:08.651Z,12.60
2023-11-14T14:33:36.415Z,12.60
2023-11-14T14:36:04.032Z,12.50
2023-11-14T14:38:30.921Z,12.50
2023-11-14T14:40:57.775Z,12.50
2023-11-14T14:43:24.760Z,12.50
2023-11-14T14:45:55.183Z,12.50
2023-11-14T14:48:23.935Z,12.50
2023-11-14T14:50:55.242Z,12.50
2023-11-14T14:53:25.058Z,12.50
2023-11-14T14:55:52.302Z,12.40
2023-11-14T14:58:21.199Z,12.40
2023-11-14T15:00:48.317Z,12.40
2023-11-14T15:03:22.224Z,12.40
2023-11-14T15:05:52.739Z,12.40
2023-11-14T15:08:20.842Z,12.40
2023-11-14T15:10:48.404Z,12.40
2023-11-14T15:13:15.161Z,12.40
2023-11-14T15:15:41.952Z,12.40
2023-11-14T15:18:09.138Z,12.40
2023-11-14T15:20:36.111Z,12.40
2023-11-14T15:23:04.644Z,12.40
2023-11-14T15:25:33.991Z,12.40
2023-11-14T15:28:00.841Z,12.30
2023-11-14T15:30:27.697Z,12.30
2023-11-14T15:32:54.547Z,12.30
2023-11-14T15:35:21.828Z,12.30
2023-11-14T15:37:51.581Z,12.30
2023-11-14T15:40:19.570Z,12.30
2023-11-14T15:42:46.880Z,12.30
2023-11-14T15:45:13.930Z,12.20
2023-11-14T15:47:40.843Z,12.20
2023-11-14T15:50:10.840Z,12.20
2023-11-14T15:52:37.832Z,12.20
2023-11-14T15:55:06.175Z,12.10
2023-11-14T15:57:33.542Z,12.10
2023-11-14T16:00:00.492Z,12.10
2023-11-14T16:02:27.359Z,12.00
2023-11-14T16:04:54.166Z,12.10
2023-11-14T16:07:20.952Z,12.00
2023-11-14T16:09:47.828Z,12.10
2023-11-14T16:12:14.714Z,12.00
2023-11-14T16:14:41.524Z,12.00
2023-11-14T16:17:08.303Z,12.00
2023-11-14T16:19:38.401Z,12.00
2023-11-14T16:22:06.404Z,12.00
2023-11-14T16:24:33.394Z,12.00
2023-11-14T16:27:01.690Z,12.00
2023-11-14T16:29:29.167Z,12.00
2023-11-14T16:31:57.315Z,12.00
2023-11-14T16:34:24.154Z,11.90
2023-11-14T16:36:51.055Z,12.10
2023-11-14T16:39:18.004Z,12.00
2023-11-14T16:41:44.985Z,12.00
2023-11-14T16:44:12.680Z,12.00
2023-11-14T16:46:40.148Z,12.00
2023-11-14T16:49:07.096Z,12.00
2023-11-14T16:51:34.713Z,11.90
2023-11-14T16:54:01.747Z,12.00
2023-11-14T16:56:28.993Z,11.90
2023-11-14T16:58:58.331Z,12.00
2023-11-14T17:01:27.245Z,12.00
2023-11-14T17:03:55.506Z,11.90
2023-11-14T17:06:22.382Z,11.90
2023-11-14T17:08:49.236Z,11.90
2023-11-14T17:11:16.381Z,11.90
2023-11-14T17:13:43.259Z,11.80
2023-11-14T17:16:10.176Z,11.80
2023-11-14T17:18:38.423Z,11.80
2023-11-14T17:21:06.289Z,11.80
2023-11-14T17:23:33.229Z,11.80
2023-11-14T17:26:00.361Z,11.80
2023-11-14T17:28:27.313Z,11.80
2023-11-14T17:30:54.094Z,11.80
2023-11-14T17:33:20.890Z,11.80
2023-11-14T17:35:49.746Z,11.80
2023-11-14T17:38:16.580Z,11.80
2023-11-14T17:40:43.430Z,11.80
2023-11-14T17:43:10.272Z,11.90
2023-11-14T17:45:38.843Z,11.80
2023-11-14T17:48:09.098Z,11.80
2023-11-14T17:50:37.364Z,11.80
2023-11-14T17:53:05.003Z,11.70
2023-11-14T17:55:33.519Z,11.70
2023-11-14T17:58:03.690Z,11.70
2023-11-14T18:00:30.975Z,11.70
2023-11-14T18:02:59.339Z,11.60
2023-11-14T18:05:27.272Z,11.60
2023-11-14T18:07:54.570Z,11.50
2023-11-14T18:10:21.427Z,11.40
2023-11-14T18:12:50.582Z,11.30
2023-11-14T18:15:18.407Z,11.20
2023-11-14T18:17:45.581Z,11.10
2023-11-14T18:20:12.961Z,11.00
2023-11-14T18:22:39.843Z,11.00
2023-11-14T18:25:07.267Z,10.90
2023-11-14T18:27:34.837Z,10.80
2023-11-14T18:30:02.177Z,10.70
2023-11-14T18:32:29.855Z,10.70
2023-11-14T18:34:57.317Z,10.60
2023-11-14T18:37:25.753Z,10.60
2023-11-14T18:39:53.086Z,10.50
2023-11-14T18:42:20.311Z,10.40
2023-11-14T18:45:00.922Z,10.40
2023-11-14T18:47:32.744Z,10.40
2023-11-14T18:49:59.821Z,10.30
2023-11-14T18:52:29.676Z,10.20
2023-11-14T18:55:00.344Z,10.20
2023-11-14T18:57:27.982Z,10.20
2023-11-14T18:59:56.121Z,10.30
2023-11-14T19:02:24.560Z,10.20
2023-11-14T19:04:51.524Z,10.10
2023-11-14T19:07:19.858Z,10.10
2023-11-14T19:09:47.381Z,10.10
2023-11-14T19:12:14.383Z,10.10
2023-11-14T19:14:41.161Z,10.10
2023-11-14T19:17:08.312Z,10.00
2023-11-14T19:19:35.267Z,10.10
2023-11-14T19:22:23.804Z,10.00
2023-11-14T19:25:01.236Z,10.00
2023-11-14T19:27:30.105Z,10.00
2023-11-14T19:29:57.715Z,10.00
2023-11-14T19:32:24.825Z,10.00
2023-11-14T19:34:51.641Z,10.00
2023-11-14T19:37:18.641Z,10.00
2023-11-14T19:39:45.837Z,10.00
2023-11-14T19:42:12.929Z,10.00
2023-11-14T19:44:39.854Z,10.00
2023-11-14T19:47:06.851Z,9.90
2023-11-14T19:49:39.367Z,9.90
2023-11-14T19:52:13.787Z,9.90
2023-11-14T19:54:40.708Z,9.90
2023-11-14T19:57:08.790Z,9.90
2023-11-14T19:59:36.064Z,9.90
2023-11-14T20:02:03.157Z,9.90
2023-11-14T20:04:30.722Z,9.90
2023-11-14T20:06:59.035Z,9.80
2023-11-14T20:09:26.323Z,9.80
2023-11-14T20:11:55.270Z,9.80
2023-11-14T20:14:22.734Z,9.90
2023-11-14T20:16:50.086Z,9.80
2023-11-14T20:19:18.526Z,9.80
2023-11-14T20:21:45.835Z,9.80
2023-11-14T20:24:13.179Z,9.80
2023-11-14T20:26:42.977Z,9.70
2023-11-14T20:29:10.129Z,9.70
2023-11-14T20:31:37.059Z,9.70
2023-11-14T20:34:04.091Z,9.70
2023-11-14T20:36:31.848Z,9.70
2023-11-14T20:38:59.404Z,9.70
2023-11-14T20:41:26.500Z,9.70
2023-11-14T20:43:53.389Z,9.70
2023-11-14T20:46:20.226Z,9.70
2023-11-14T20:48:47.026Z,9.70
2023-11-14T20:51:22.347Z,9.60
2023-11-14T20:53:54.456Z,9.60
2023-11-14T20:56:25.429Z,9.60
2023-11-14T20:58:55.986Z,9.60
2023-11-14T21:01:24.647Z,9.60
2023-11-14T21:03:51.775Z,9.60
2023-11-14T21:06:18.795Z,9.70
2023-11-14T21:08:45.629Z,9.60
2023-11-14T21:11:12.597Z,9.60
2023-11-14T21:13:40.100Z,9.60
2023-11-14T21:16:11.866Z,9.60
2023-11-14T21:18:39.317Z,9.60
2023-11-14T21:21:08.276Z,9.60
2023-11-14T21:23:39.722Z,9.50
2023-11-14T21:26:07.709Z,9.50
2023-11-14T21:28:34.471Z,9.50
2023-11-14T21:31:07.844Z,9.50
2023-11-14T21:33:37.088Z,9.50
2023-11-14T21:36:05.545Z,9.50
2023-11-14T21:38:33.328Z,9.50
2023-11-14T21:41:00.829Z,9.50
2023-11-14T21:43:28.315Z,9.50
2023-11-14T21:45:55.535Z,9.50
2023-11-14T21:48:22.736Z,9.50
2023-11-14T21:50:50.053Z,9.50
2023-11-14T21:53:17.946Z,9.50
2023-11-14T21:55:45.090Z,9.50
2023-11-14T21:58:12.282Z,9.50
2023-11-14T22:00:39.818Z,9.50
2023-11-14T22:03:11.429Z,9.50
2023-11-14T22:05:44.630Z,9.50
2023-11-14T22:08:15.516Z,9.50
2023-11-14T22:11:31.351Z,9.50
2023-11-14T22:14:20.243Z,9.40
2023-11-14T22:16:51.266Z,9.40
2023-11-14T22:19:21.283Z,9.40
2023-11-14T22:21:48.818Z,9.40
2023-11-14T22:24:15.797Z,9.40
2023-11-14T22:26:43.464Z,9.40
2023-11-14T22:29:13.739Z,9.40
2023-11-14T22:31:43.559Z,9.40
2023-11-14T22:34:10.624Z,9.40
2023-11-14T22:36:40.952Z,9.40
2023-11-14T22:39:17.322Z,9.40
2023-11-14T22:44:34.573Z,9.40
2023-11-14T22:47:01.700Z,9.50
2023-11-14T22:49:29.051Z,9.40
2023-11-14T22:51:55.878Z,9.50
2023-11-14T22:54:22.694Z,9.50
2023-11-14T22:56:49.519Z,9.50
2023-11-14T22:59:16.304Z,9.50
2023-11-14T23:01:43.066Z,9.50
2023-11-14T23:04:10.503Z,9.60
2023-11-14T23:06:40.540Z,9.60
2023-11-14T23:09:16.729Z,9.60
2023-11-14T23:11:48.425Z,9.60
2023-11-14T23:14:15.577Z,9.60
2023-11-14T23:16:46.171Z,9.60
2023-11-14T23:19:14.529Z,9.70
2023-11-14T23:21:48.782Z,9.70
2023-11-14T23:24:20.853Z,9.70
2023-11-14T23:26:47.852Z,9.60
2023-11-14T23:29:14.967Z,9.60
2023-11-14T23:31:41.770Z,9.70
2023-11-14T23:34:08.564Z,9.70
2023-11-14T23:36:35.364Z,9.70
2023-11-14T23:39:02.276Z,9.70
2023-11-14T23:41:29.205Z,9.70
2023-11-14T23:43:56.273Z,9.70
2023-11-14T23:46:24.283Z,9.70
2023-11-14T23:48:51.734Z,9.70
2023-11-14T23:51:19.074Z,9.70
2023-11-14T23:53:46.480Z,9.70
2023-11-14T23:56:13.802Z,9.60
2023-11-14T23:58:40.962Z,9.60
